createdAt,value
2018-05-27T00:02:22.278Z,95680.63
2018-05-27T00:04:50.261Z,95673.07
2018-05-27T00:07:18.263Z,95669.67
2018-05-27T00:09:46.332Z,95670.63
2018-05-27T00:12:14.334Z,95661.77
2018-05-27T00:14:42.358Z,95663.78
2018-05-27T00:17:10.386Z,95659.20
2018-05-27T00:19:38.335Z,95658.71
2018-05-27T00:22:06.401Z,95654.10
2018-05-27T00:24:34.501Z,95647.45
2018-05-27T00:27:02.563Z,95645.12
2018-05-27T00:29:31.005Z,95638.23
2018-05-27T00:31:58.997Z,95628.89
2018-05-27T00:34:27.046Z,95625.91
2018-05-27T00:36:55.045Z,95624.66
2018-05-27T00:39:23.035Z,95631.44
2018-05-27T00:41:51.046Z,95626.52
2018-05-27T00:44:19.063Z,95637.06
2018-05-27T00:46:47.059Z,95634.94
2018-05-27T00:49:15.079Z,95639.53
2018-05-27T00:51:43.078Z,95639.38
2018-05-27T00:54:11.094Z,95646.74
2018-05-27T00:56:39.089Z,95644.80
2018-05-27T00:59:07.080Z,95653.01
2018-05-27T01:01:35.087Z,95659.52
2018-05-27T01:04:03.079Z,95658.86
2018-05-27T01:06:31.170Z,95659.25
2018-05-27T01:08:59.216Z,95672.11
2018-05-27T01:11:27.275Z,95669.34
2018-05-27T01:13:55.257Z,95667.41
2018-05-27T01:16:23.245Z,95658.52
2018-05-27T01:18:51.223Z,95662.23
2018-05-27T01:21:19.319Z,95661.38
2018-05-27T01:23:47.320Z,95662.46
2018-05-27T01:26:15.343Z,95664.42
2018-05-27T01:28:43.369Z,95664.20
2018-05-27T01:31:11.714Z,95661.27
2018-05-27T01:33:39.685Z,95663.73
2018-05-27T01:36:07.702Z,95660.18
2018-05-27T01:38:35.733Z,95663.97
2018-05-27T01:41:03.757Z,95661.67
2018-05-27T01:43:31.789Z,95652.08
2018-05-27T01:45:59.751Z,95647.40
2018-05-27T01:48:27.727Z,95650.77
2018-05-27T01:50:55.716Z,95651.11
2018-05-27T01:53:23.674Z,95659.19
2018-05-27T01:55:51.657Z,95659.29
2018-05-27T01:58:19.582Z,95663.25
2018-05-27T02:00:47.509Z,95662.79
2018-05-27T02:03:15.560Z,95670.70
2018-05-27T02:05:43.595Z,95671.37
2018-05-27T02:08:11.612Z,95669.14
2018-05-27T02:10:39.643Z,95680.71
2018-05-27T02:13:07.651Z,95684.97
2018-05-27T02:15:35.636Z,95678.91
2018-05-27T02:18:03.739Z,95679.92
2018-05-27T02:20:31.871Z,95687.56
2018-05-27T02:22:59.790Z,95687.45
2018-05-27T02:25:27.770Z,95691.75
2018-05-27T02:27:55.737Z,95692.88
2018-05-27T02:30:23.758Z,95688.19
2018-05-27T02:32:51.974Z,95689.91
2018-05-27T02:35:20.066Z,95685.89
2018-05-27T02:37:48.091Z,95684.38
2018-05-27T02:40:16.120Z,95691.02
2018-05-27T02:42:44.114Z,95679.48
2018-05-27T02:45:12.158Z,95689.27
2018-05-27T02:47:40.191Z,95680.86
2018-05-27T02:50:08.175Z,95690.44
2018-05-27T02:52:36.156Z,95688.79
2018-05-27T02:55:04.220Z,95688.63
2018-05-27T02:57:32.226Z,95694.89
2018-05-27T03:00:00.169Z,95691.48
2018-05-27T03:02:28.219Z,95681.30
2018-05-27T03:04:56.250Z,95678.83
2018-05-27T03:07:24.329Z,95685.19
2018-05-27T03:09:52.372Z,95687.45
2018-05-27T03:12:20.393Z,95684.97
2018-05-27T03:14:48.410Z,95688.15
2018-05-27T03:17:16.379Z,95691.63
2018-05-27T03:19:44.415Z,95689.24
2018-05-27T03:22:12.370Z,95690.30
2018-05-27T03:24:40.419Z,95692.97
2018-05-27T03:27:08.381Z,95688.61
2018-05-27T03:29:36.446Z,95695.30
2018-05-27T03:32:04.420Z,95691.57
2018-05-27T03:34:32.708Z,95684.86
2018-05-27T03:37:00.740Z,95686.75
2018-05-27T03:39:28.827Z,95679.37
2018-05-27T03:41:56.807Z,95688.80
2018-05-27T03:44:24.853Z,95683.30
2018-05-27T03:46:52.792Z,95691.97
2018-05-27T03:49:20.763Z,95693.56
2018-05-27T03:51:48.817Z,95707.52
2018-05-27T03:54:16.786Z,95690.16
2018-05-27T03:56:44.783Z,95692.75
2018-05-27T03:59:12.771Z,95688.56
2018-05-27T04:01:40.765Z,95678.91
2018-05-27T04:04:20.386Z,95691.00
2018-05-27T04:07:01.482Z,95701.52
2018-05-27T04:09:29.524Z,95692.08
2018-05-27T04:11:58.442Z,95687.37
2018-05-27T04:14:26.482Z,95687.98
2018-05-27T04:16:54.430Z,95690.78
2018-05-27T04:19:22.461Z,95692.95
2018-05-27T04:21:50.465Z,95699.33
2018-05-27T04:27:22.247Z,95691.79
2018-05-27T04:29:50.294Z,95692.91
2018-05-27T04:32:18.291Z,95690.38
2018-05-27T04:34:46.259Z,95689.48
2018-05-27T04:37:14.283Z,95685.05
2018-05-27T04:39:42.439Z,95689.72
2018-05-27T04:42:10.466Z,95687.99
2018-05-27T04:44:38.521Z,95695.36
2018-05-27T04:47:06.540Z,95683.12
2018-05-27T04:49:34.519Z,95689.05
2018-05-27T04:52:02.507Z,95687.61
2018-05-27T04:54:30.518Z,95675.45
2018-05-27T04:56:58.523Z,95674.03
2018-05-27T04:59:26.512Z,95666.39
2018-05-27T05:01:54.490Z,95665.11
2018-05-27T05:04:22.522Z,95666.53
2018-05-27T05:06:50.556Z,95661.72
2018-05-27T05:09:18.566Z,95664.22
2018-05-27T05:11:46.554Z,95653.15
2018-05-27T05:14:14.569Z,95662.33
2018-05-27T05:16:42.528Z,95664.11
2018-05-27T05:19:11.699Z,95657.72
2018-05-27T05:21:39.902Z,95659.30
2018-05-27T05:24:07.921Z,95656.30
2018-05-27T05:26:35.946Z,95653.00
2018-05-27T05:29:04.411Z,95653.09
2018-05-27T05:31:32.468Z,95666.35
2018-05-27T05:34:00.455Z,95650.45
2018-05-27T05:36:28.422Z,95649.84
2018-05-27T05:38:56.412Z,95651.38
2018-05-27T05:41:24.426Z,95657.95
2018-05-27T05:43:52.476Z,95658.11
2018-05-27T05:46:20.512Z,95672.45
2018-05-27T05:48:48.540Z,95667.69
2018-05-27T05:51:16.581Z,95663.40
2018-05-27T05:53:44.603Z,95661.88
2018-05-27T05:56:12.723Z,95664.34
2018-05-27T05:58:40.676Z,95661.97
2018-05-27T06:01:08.725Z,95658.34
2018-05-27T06:03:36.757Z,95656.44
2018-05-27T06:06:04.791Z,95654.69
2018-05-27T06:08:32.835Z,95654.00
2018-05-27T06:11:00.794Z,95651.28
2018-05-27T06:13:28.791Z,95645.66
2018-05-27T06:15:56.804Z,95643.80
2018-05-27T06:18:24.812Z,95643.52
2018-05-27T06:20:52.869Z,95638.31
2018-05-27T06:23:21.026Z,95644.20
2018-05-27T06:25:49.109Z,95640.95
2018-05-27T06:28:17.147Z,95646.35
2018-05-27T06:30:45.519Z,95639.15
2018-05-27T06:33:13.596Z,95642.11
2018-05-27T06:35:41.640Z,95643.11
2018-05-27T06:38:09.783Z,95650.11
2018-05-27T06:40:37.839Z,95652.55
2018-05-27T06:43:05.792Z,95648.53
2018-05-27T06:45:33.822Z,95651.59
2018-05-27T06:48:01.814Z,95646.12
2018-05-27T06:50:30.095Z,95647.31
2018-05-27T06:52:58.048Z,95637.98
2018-05-27T06:55:26.036Z,95630.34
2018-05-27T06:57:54.068Z,95638.80
2018-05-27T07:00:22.065Z,95636.78
2018-05-27T07:02:50.013Z,95627.27
2018-05-27T07:05:18.207Z,95629.41
2018-05-27T07:07:46.191Z,95626.99
2018-05-27T07:10:14.281Z,95626.17
2018-05-27T07:12:42.276Z,95623.59
2018-05-27T07:15:10.309Z,95635.54
2018-05-27T07:17:38.359Z,95635.92
2018-05-27T07:20:06.393Z,95640.72
2018-05-27T07:22:34.437Z,95643.63
2018-05-27T07:25:02.453Z,95641.04
2018-05-27T07:27:30.451Z,95640.55
2018-05-27T07:29:58.486Z,95637.22
2018-05-27T07:32:27.089Z,95636.31
2018-05-27T07:34:55.143Z,95631.72
2018-05-27T07:37:23.174Z,95643.73
2018-05-27T07:39:51.242Z,95636.06
2018-05-27T07:42:19.282Z,95646.91
2018-05-27T07:44:47.319Z,95647.23
2018-05-27T07:47:15.347Z,95646.58
2018-05-27T07:49:43.412Z,95641.80
2018-05-27T07:52:11.407Z,95638.97
2018-05-27T07:54:39.444Z,95640.70
2018-05-27T07:57:07.426Z,95635.82
2018-05-27T07:59:35.484Z,95646.70
2018-05-27T08:02:03.611Z,95639.19
2018-05-27T08:04:31.615Z,95641.55
2018-05-27T08:06:59.669Z,95639.28
2018-05-27T08:09:27.658Z,95635.03
2018-05-27T08:11:55.681Z,95632.63
2018-05-27T08:14:23.655Z,95627.98
2018-05-27T08:16:51.644Z,95639.23
2018-05-27T08:19:19.543Z,95627.72
2018-05-27T08:21:47.516Z,95631.61
2018-05-27T08:24:15.692Z,95636.70
2018-05-27T08:26:43.625Z,95632.80
2018-05-27T08:29:11.605Z,95628.10
2018-05-27T08:31:39.656Z,95627.51
2018-05-27T08:34:08.135Z,95630.51
2018-05-27T08:36:36.149Z,95623.97
2018-05-27T08:39:04.365Z,95631.04
2018-05-27T08:41:32.296Z,95626.48
2018-05-27T08:44:00.305Z,95538.26
2018-05-27T08:46:28.529Z,95625.16
2018-05-27T08:48:56.572Z,95629.84
2018-05-27T08:51:24.555Z,95619.48
2018-05-27T08:53:52.488Z,95631.62
2018-05-27T08:56:20.536Z,95625.36
2018-05-27T08:58:48.519Z,95619.83
2018-05-27T09:01:16.721Z,95632.03
2018-05-27T09:03:44.734Z,95623.41
2018-05-27T09:06:12.725Z,95620.27
2018-05-27T09:08:40.719Z,95598.41
2018-05-27T09:11:08.755Z,95613.97
2018-05-27T09:13:36.770Z,95614.08
2018-05-27T09:16:04.811Z,95605.89
2018-05-27T09:18:32.830Z,95606.35
2018-05-27T09:21:00.837Z,95614.98
2018-05-27T09:23:28.835Z,95612.27
2018-05-27T09:25:56.915Z,95614.61
2018-05-27T09:28:24.986Z,95610.91
2018-05-27T09:30:52.977Z,95605.11
2018-05-27T09:33:21.057Z,95608.76
2018-05-27T09:35:49.402Z,95604.61
2018-05-27T09:38:17.388Z,95610.44
2018-05-27T09:40:45.385Z,95610.75
2018-05-27T09:43:13.346Z,95602.41
2018-05-27T09:45:41.380Z,95604.55
2018-05-27T09:48:09.530Z,95605.23
2018-05-27T09:50:37.589Z,95598.05
2018-05-27T09:53:05.602Z,95595.08
2018-05-27T09:55:33.639Z,95595.58
2018-05-27T09:58:01.687Z,95600.59
2018-05-27T10:00:29.632Z,95595.19
2018-05-27T10:02:57.674Z,95593.23
2018-05-27T10:05:25.705Z,95592.80
2018-05-27T10:07:53.705Z,95600.28
2018-05-27T10:10:21.703Z,95598.57
2018-05-27T10:12:49.938Z,95591.94
2018-05-27T10:15:17.965Z,95588.92
2018-05-27T10:17:45.975Z,95578.48
2018-05-27T10:20:14.015Z,95586.66
2018-05-27T10:22:42.004Z,95586.02
2018-05-27T10:25:10.025Z,95579.03
2018-05-27T10:27:38.006Z,95577.40
2018-05-27T10:30:06.075Z,95569.16
2018-05-27T10:32:34.073Z,95570.11
2018-05-27T10:35:02.040Z,95563.63
2018-05-27T10:37:30.533Z,95563.06
2018-05-27T10:39:58.563Z,95563.84
2018-05-27T10:42:26.588Z,95565.89
2018-05-27T10:44:54.618Z,95563.23
2018-05-27T10:47:22.557Z,95556.39
2018-05-27T10:49:50.505Z,95563.15
2018-05-27T10:52:18.446Z,95555.69
2018-05-27T10:54:46.406Z,95556.66
2018-05-27T10:57:14.423Z,95553.78
2018-05-27T10:59:42.482Z,95550.02
2018-05-27T11:02:10.500Z,95550.02
2018-05-27T11:04:38.551Z,95548.16
2018-05-27T11:07:06.580Z,95548.16
2018-05-27T11:09:34.686Z,95547.93
2018-05-27T11:12:02.654Z,95544.11
2018-05-27T11:14:30.632Z,95538.62
2018-05-27T11:16:58.690Z,95534.01
2018-05-27T11:19:26.716Z,95525.16
2018-05-27T11:21:54.740Z,95526.64
2018-05-27T11:24:22.737Z,95521.95
2018-05-27T11:26:50.763Z,95522.05
2018-05-27T11:29:18.752Z,95518.94
2018-05-27T11:31:46.707Z,95513.55
2018-05-27T11:34:14.729Z,95508.76
2018-05-27T11:36:42.680Z,95506.35
2018-05-27T11:39:10.975Z,95502.83
2018-05-27T11:41:38.999Z,95500.48
2018-05-27T11:44:06.985Z,95497.28
2018-05-27T11:46:34.986Z,95497.96
2018-05-27T11:49:03.083Z,95490.59
2018-05-27T11:51:31.106Z,95489.03
2018-05-27T11:53:59.093Z,95489.06
2018-05-27T11:56:27.108Z,95485.24
2018-05-27T11:58:55.109Z,95477.39
2018-05-27T12:01:23.098Z,95478.78
2018-05-27T12:03:51.135Z,95483.34
2018-05-27T12:06:19.127Z,95481.27
2018-05-27T12:08:47.177Z,95475.95
2018-05-27T12:11:15.364Z,95469.64
2018-05-27T12:13:43.376Z,95463.97
2018-05-27T12:16:11.570Z,95457.59
2018-05-27T12:18:39.880Z,95453.73
2018-05-27T12:21:08.456Z,95448.38
2018-05-27T12:23:36.852Z,95443.77
2018-05-27T12:26:05.240Z,95439.86
2018-05-27T12:28:34.007Z,95451.01
2018-05-27T12:31:02.796Z,95439.10
2018-05-27T12:33:31.498Z,95440.73
2018-05-27T12:35:59.969Z,95432.08
2018-05-27T12:38:28.330Z,95431.71
2018-05-27T12:40:56.920Z,95431.77
2018-05-27T12:43:25.286Z,95433.59
2018-05-27T12:45:53.625Z,95429.74
2018-05-27T12:48:22.069Z,95427.73
2018-05-27T12:50:50.942Z,95429.38
2018-05-27T12:53:19.435Z,95341.63
2018-05-27T12:55:48.122Z,95430.05
2018-05-27T12:58:16.208Z,95429.91
2018-05-27T13:00:44.191Z,95423.56
2018-05-27T13:03:12.181Z,95433.07
2018-05-27T13:05:40.193Z,95425.48
2018-05-27T13:08:08.213Z,95433.02
2018-05-27T13:10:36.297Z,95428.59
2018-05-27T13:13:04.326Z,95426.22
2018-05-27T13:15:32.352Z,95430.45
2018-05-27T13:18:00.377Z,95424.88
2018-05-27T13:20:28.378Z,95418.05
2018-05-27T13:22:56.390Z,95416.67
2018-05-27T13:25:24.363Z,95420.38
2018-05-27T13:27:52.478Z,95415.91
2018-05-27T13:30:20.450Z,95416.36
2018-05-27T13:32:48.450Z,95412.13
2018-05-27T13:35:16.489Z,95410.08
2018-05-27T13:37:44.555Z,95417.85
2018-05-27T13:40:12.609Z,95416.46
2018-05-27T13:42:40.688Z,95422.69
2018-05-27T13:45:08.744Z,95381.65
2018-05-27T13:47:36.724Z,95425.57
2018-05-27T13:50:04.834Z,95424.83
2018-05-27T13:52:32.805Z,95425.63
2018-05-27T13:55:00.846Z,95424.08
2018-05-27T13:57:28.833Z,95422.74
2018-05-27T13:59:56.807Z,95423.52
2018-05-27T14:02:24.803Z,95420.20
2018-05-27T14:04:52.740Z,95421.54
2018-05-27T14:07:20.814Z,95421.35
2018-05-27T14:09:48.741Z,95429.08
2018-05-27T14:12:16.745Z,95431.89
2018-05-27T14:14:44.749Z,95430.59
2018-05-27T14:17:12.734Z,95433.70
2018-05-27T14:19:40.789Z,95434.25
2018-05-27T14:22:08.778Z,95435.47
2018-05-27T14:24:36.758Z,95432.41
2018-05-27T14:27:04.797Z,95427.53
2018-05-27T14:29:32.919Z,95425.23
2018-05-27T14:32:00.910Z,95428.93
2018-05-27T14:34:29.055Z,95423.88
2018-05-27T14:36:57.014Z,95427.61
2018-05-27T14:39:24.993Z,95420.56
2018-05-27T14:41:53.025Z,95419.86
2018-05-27T14:44:21.170Z,95424.56
2018-05-27T14:46:49.193Z,95423.36
2018-05-27T14:49:17.210Z,95428.27
2018-05-27T14:51:45.258Z,95423.40
2018-05-27T14:54:13.254Z,95431.35
2018-05-27T14:56:41.304Z,95434.14
2018-05-27T14:59:09.357Z,95400.41
2018-05-27T15:01:37.416Z,95432.76
2018-05-27T15:04:05.477Z,95429.58
2018-05-27T15:06:33.564Z,95431.72
2018-05-27T15:09:01.638Z,95435.05
2018-05-27T15:11:29.645Z,95434.48
2018-05-27T15:13:57.760Z,95431.59
2018-05-27T15:16:25.787Z,95437.65
2018-05-27T15:18:53.819Z,95427.69
2018-05-27T15:21:21.818Z,95424.97
2018-05-27T15:23:49.816Z,95430.40
2018-05-27T15:26:17.859Z,95433.48
2018-05-27T15:28:45.862Z,95432.28
2018-05-27T15:31:13.904Z,95427.22
2018-05-27T15:33:41.935Z,95429.20
2018-05-27T15:36:09.943Z,95416.14
2018-05-27T15:38:37.942Z,95423.58
2018-05-27T15:41:05.981Z,95420.86
2018-05-27T15:43:34.169Z,95419.23
2018-05-27T15:46:02.674Z,95420.41
2018-05-27T15:48:30.763Z,95424.70
2018-05-27T15:50:58.793Z,95424.55
2018-05-27T15:53:27.405Z,95434.06
2018-05-27T15:55:55.457Z,95424.44
2018-05-27T15:58:23.665Z,95422.30
2018-05-27T16:00:51.649Z,95430.58
2018-05-27T16:03:19.687Z,95431.24
2018-05-27T16:05:47.702Z,95435.39
2018-05-27T16:08:15.737Z,95438.33
2018-05-27T16:10:43.766Z,95437.94
2018-05-27T16:13:12.102Z,95437.41
2018-05-27T16:15:40.171Z,95434.59
2018-05-27T16:18:08.250Z,95437.97
2018-05-27T16:20:36.245Z,95439.00
2018-05-27T16:23:04.319Z,95441.90
2018-05-27T16:25:32.366Z,95444.28
2018-05-27T16:28:00.495Z,95450.84
2018-05-27T16:30:28.497Z,95454.88
2018-05-27T16:32:56.575Z,95461.84
2018-05-27T16:35:24.628Z,95458.71
2018-05-27T16:37:52.662Z,95459.31
2018-05-27T16:40:20.736Z,95459.89
2018-05-27T16:42:48.721Z,95463.81
2018-05-27T16:45:16.902Z,95459.00
2018-05-27T16:47:45.453Z,95458.34
2018-05-27T16:50:13.904Z,95464.98
2018-05-27T16:52:42.010Z,95351.20
2018-05-27T16:55:09.983Z,95463.22
2018-05-27T16:57:38.446Z,95465.23
2018-05-27T17:00:06.513Z,95451.97
2018-05-27T17:02:34.599Z,95470.89
2018-05-27T17:05:02.639Z,95468.59
2018-05-27T17:07:30.632Z,95475.22
2018-05-27T17:09:58.697Z,95480.29
2018-05-27T17:12:26.702Z,95482.72
2018-05-27T17:14:54.812Z,95483.59
2018-05-27T17:17:22.854Z,95459.42
2018-05-27T17:19:50.870Z,95467.11
2018-05-27T17:22:18.862Z,95500.77
2018-05-27T17:24:46.876Z,95505.64
2018-05-27T17:27:14.833Z,95505.05
2018-05-27T17:29:42.848Z,95511.11
2018-05-27T17:32:10.862Z,95511.28
2018-05-27T17:34:38.878Z,95512.37
2018-05-27T17:37:06.855Z,95511.47
2018-05-27T17:39:34.938Z,95512.13
2018-05-27T17:42:03.003Z,95516.52
2018-05-27T17:44:32.078Z,95522.07
2018-05-27T17:47:00.113Z,95516.22
2018-05-27T17:49:28.453Z,95528.73
2018-05-27T17:51:56.436Z,95528.45
2018-05-27T17:54:24.553Z,95527.37
2018-05-27T17:56:52.535Z,95532.39
2018-05-27T17:59:20.520Z,95535.11
2018-05-27T18:01:48.468Z,95543.02
2018-05-27T18:04:16.561Z,95541.23
2018-05-27T18:06:44.600Z,95549.97
2018-05-27T18:09:12.599Z,95551.75
2018-05-27T18:11:40.626Z,95554.38
2018-05-27T18:14:08.636Z,95560.58
2018-05-27T18:16:36.676Z,95558.83
2018-05-27T18:19:04.677Z,95568.73
2018-05-27T18:21:32.674Z,95567.22
2018-05-27T18:24:00.684Z,95573.81
2018-05-27T18:26:28.615Z,95575.38
2018-05-27T18:28:56.679Z,95588.78
2018-05-27T18:31:24.682Z,95598.21
2018-05-27T18:33:52.708Z,95601.37
2018-05-27T18:36:20.803Z,95602.42
2018-05-27T18:38:48.910Z,95603.20
2018-05-27T18:41:17.006Z,95608.79
2018-05-27T18:43:45.007Z,95596.56
2018-05-27T18:46:13.094Z,95615.02
2018-05-27T18:48:41.187Z,95625.89
2018-05-27T18:51:09.503Z,95621.91
2018-05-27T18:53:37.549Z,95623.01
2018-05-27T18:56:05.539Z,95616.13
2018-05-27T18:58:33.579Z,95625.02
2018-05-27T19:01:01.595Z,95628.91
2018-05-27T19:03:29.710Z,95630.30
2018-05-27T19:05:57.809Z,95623.75
2018-05-27T19:08:25.863Z,95629.33
2018-05-27T19:10:53.949Z,95624.71
2018-05-27T19:13:21.929Z,95624.44
2018-05-27T19:15:50.293Z,95634.88
2018-05-27T19:18:18.401Z,95632.94
2018-05-27T19:20:46.438Z,95637.91
2018-05-27T19:23:14.401Z,95632.46
2018-05-27T19:25:42.636Z,95639.34
2018-05-27T19:28:10.681Z,95640.82
2018-05-27T19:30:38.704Z,95640.55
2018-05-27T19:33:06.781Z,95649.58
2018-05-27T19:35:34.861Z,95648.82
2018-05-27T19:38:02.863Z,95653.45
2018-05-27T19:40:30.828Z,95653.43
2018-05-27T19:42:58.814Z,95664.80
2018-05-27T19:45:26.833Z,95663.78
2018-05-27T19:47:54.859Z,95670.58
2018-05-27T19:50:22.849Z,95689.22
2018-05-27T19:52:51.158Z,95688.14
2018-05-27T19:55:19.183Z,95684.39
2018-05-27T19:57:47.192Z,95684.28
2018-05-27T20:00:15.183Z,95689.59
2018-05-27T20:02:43.159Z,95690.92
2018-05-27T20:05:11.140Z,95689.83
2018-05-27T20:07:39.178Z,95687.80
2018-05-27T20:10:07.223Z,95621.89
2018-05-27T20:12:35.229Z,95689.38
2018-05-27T20:15:03.373Z,95689.78
2018-05-27T20:17:31.412Z,95694.64
2018-05-27T20:19:59.447Z,95694.92
2018-05-27T20:22:27.463Z,95691.34
2018-05-27T20:24:55.500Z,95692.70
2018-05-27T20:27:23.498Z,95693.42
2018-05-27T20:29:51.505Z,95695.08
2018-05-27T20:32:19.481Z,95691.04
2018-05-27T20:34:47.475Z,95692.92
2018-05-27T20:37:15.524Z,95693.56
2018-05-27T20:39:44.506Z,95695.20
2018-05-27T20:42:12.534Z,95697.86
2018-05-27T20:44:40.615Z,95688.91
2018-05-27T20:47:08.853Z,95689.19
2018-05-27T20:49:36.866Z,95687.05
2018-05-27T20:52:04.912Z,95686.92
2018-05-27T20:54:33.219Z,95691.01
2018-05-27T20:57:01.761Z,95688.98
2018-05-27T20:59:29.743Z,95690.77
2018-05-27T21:01:57.825Z,95692.87
2018-05-27T21:04:25.869Z,95691.41
2018-05-27T21:06:53.918Z,95702.33
2018-05-27T21:09:21.969Z,95703.30
2018-05-27T21:11:49.974Z,95704.02
2018-05-27T21:14:17.991Z,95713.05
2018-05-27T21:16:46.041Z,95711.73
2018-05-27T21:19:13.959Z,95705.21
2018-05-27T21:21:42.023Z,95697.71
2018-05-27T21:24:10.040Z,95693.13
2018-05-27T21:26:38.029Z,95706.11
2018-05-27T21:29:06.009Z,95724.09
2018-05-27T21:31:34.264Z,95728.80
2018-05-27T21:34:02.382Z,95737.77
2018-05-27T21:36:30.453Z,95738.75
2018-05-27T21:38:58.518Z,95740.99
2018-05-27T21:41:26.778Z,95742.92
2018-05-27T21:43:54.833Z,95738.63
2018-05-27T21:46:23.304Z,95734.28
2018-05-27T21:48:51.350Z,95731.08
2018-05-27T21:51:19.386Z,95729.58
2018-05-27T21:53:47.389Z,95730.28
2018-05-27T21:56:15.567Z,95725.49
2018-05-27T21:58:43.919Z,95727.75
2018-05-27T22:01:12.379Z,95726.19
2018-05-27T22:03:41.279Z,95719.97
2018-05-27T22:06:09.309Z,95718.59
2018-05-27T22:08:37.438Z,95716.09
2018-05-27T22:11:05.534Z,95720.41
2018-05-27T22:13:33.569Z,95715.16
2018-05-27T22:16:02.166Z,95717.02
2018-05-27T22:18:30.176Z,95719.00
2018-05-27T22:20:58.203Z,95707.63
2018-05-27T22:23:26.167Z,95701.55
2018-05-27T22:25:54.235Z,95711.46
2018-05-27T22:28:22.266Z,95706.50
2018-05-27T22:30:50.261Z,95710.30
2018-05-27T22:33:18.298Z,95700.69
2018-05-27T22:35:46.921Z,95704.70
2018-05-27T22:38:14.932Z,95700.21
2018-05-27T22:40:42.948Z,95706.75
2018-05-27T22:43:10.946Z,95702.12
2018-05-27T22:45:39.317Z,95700.88
2018-05-27T22:48:07.336Z,95699.86
2018-05-27T22:50:36.176Z,95701.76
2018-05-27T22:53:04.349Z,95708.05
2018-05-27T22:55:32.292Z,95690.95
2018-05-27T22:58:00.745Z,95696.41
2018-05-27T23:00:28.843Z,95690.38
2018-05-27T23:02:56.833Z,95690.53
2018-05-27T23:05:25.461Z,95693.03
2018-05-27T23:07:53.424Z,95687.77
2018-05-27T23:10:21.450Z,95679.87
2018-05-27T23:12:49.450Z,95680.24
2018-05-27T23:15:17.459Z,95676.16
2018-05-27T23:17:45.576Z,95685.22
2018-05-27T23:20:13.578Z,95684.23
2018-05-27T23:22:41.477Z,95680.61
2018-05-27T23:25:09.407Z,95673.19
2018-05-27T23:27:37.418Z,95678.13
2018-05-27T23:30:05.553Z,95683.30
2018-05-27T23:32:33.511Z,95685.58
2018-05-27T23:35:01.463Z,95679.84
2018-05-27T23:37:29.497Z,95674.61
2018-05-27T23:39:57.494Z,95670.19
2018-05-27T23:42:25.554Z,95668.97
2018-05-27T23:44:53.577Z,95678.72
2018-05-27T23:47:21.547Z,95673.10
2018-05-27T23:49:49.568Z,95670.79
2018-05-27T23:52:17.597Z,95662.69
2018-05-27T23:54:45.571Z,95666.06
2018-05-27T23:57:13.612Z,95669.55
2018-05-27T23:59:42.009Z,95667.24
